createdAt,value
2022-09-11T00:01:43.286Z,99157.56
2022-09-11T00:04:11.499Z,99154.16
2022-09-11T00:06:39.111Z,99159.06
2022-09-11T00:09:08.004Z,99151.13
2022-09-11T00:11:41.175Z,99156.88
2022-09-11T00:14:10.734Z,99159.50
2022-09-11T00:16:43.071Z,99165.59
2022-09-11T00:19:19.244Z,99156.06
2022-09-11T00:21:49.941Z,99170.16
2022-09-11T00:24:20.425Z,99171.38
2022-09-11T00:26:48.236Z,99166.81
2022-09-11T00:29:15.937Z,99163.81
2022-09-11T00:31:43.465Z,99166.91
2022-09-11T00:34:10.941Z,99162.34
2022-09-11T00:36:41.609Z,99159.16
2022-09-11T00:39:11.663Z,99160.44
2022-09-11T00:41:44.799Z,99157.38
2022-09-11T00:44:18.669Z,99165.81
2022-09-11T00:46:56.437Z,99155.50
2022-09-11T00:49:42.347Z,99154.81
2022-09-11T00:52:27.250Z,99154.84
2022-09-11T00:55:07.882Z,99156.38
2022-09-11T00:57:52.356Z,99149.53
2022-09-11T01:00:20.568Z,99152.16
2022-09-11T01:02:51.474Z,99156.81
2022-09-11T01:05:22.453Z,99154.91
2022-09-11T01:07:54.366Z,99157.59
2022-09-11T01:10:47.330Z,99157.59
2022-09-11T01:13:32.027Z,99153.78
2022-09-11T01:16:49.252Z,99146.16
2022-09-11T01:19:42.182Z,99147.34
2022-09-11T01:22:37.257Z,99147.31
2022-09-11T01:25:27.904Z,99137.09
2022-09-11T01:28:01.112Z,99134.81
2022-09-11T01:30:38.808Z,99132.84
2022-09-11T01:33:29.219Z,99142.72
2022-09-11T01:36:06.929Z,99141.56
2022-09-11T01:38:53.283Z,99133.50
2022-09-11T01:41:20.691Z,99136.47
2022-09-11T01:43:56.719Z,99142.69
2022-09-11T01:46:27.825Z,99139.34
2022-09-11T01:49:09.179Z,99142.81
2022-09-11T01:51:39.111Z,99134.44
2022-09-11T01:54:14.820Z,99139.41
2022-09-11T01:56:51.248Z,99136.34
2022-09-11T01:59:27.933Z,99123.81
2022-09-11T02:02:08.210Z,99130.66
2022-09-11T02:04:46.818Z,99131.78
2022-09-11T02:07:22.141Z,99137.94
2022-09-11T02:10:05.755Z,99133.75
2022-09-11T02:12:51.587Z,99136.00
2022-09-11T02:15:19.716Z,99137.44
2022-09-11T02:17:59.038Z,99133.69
2022-09-11T02:20:30.469Z,99134.88
2022-09-11T02:22:58.940Z,99132.63
2022-09-11T02:25:26.412Z,99127.66
2022-09-11T02:28:05.929Z,99126.13
2022-09-11T02:30:34.355Z,99125.72
2022-09-11T02:33:02.022Z,99136.00
2022-09-11T02:35:46.838Z,99142.16
2022-09-11T02:38:30.220Z,99154.00
2022-09-11T02:41:10.076Z,99164.28
2022-09-11T02:44:16.998Z,99159.69
2022-09-11T02:47:27.136Z,99158.56
2022-09-11T02:50:14.216Z,99147.53
2022-09-11T02:53:27.602Z,99143.34
2022-09-11T02:56:17.187Z,99144.47
2022-09-11T02:58:51.144Z,99146.38
2022-09-11T03:01:18.807Z,99143.72
2022-09-11T03:03:48.092Z,99142.56
2022-09-11T03:06:24.986Z,99146.75
2022-09-11T03:08:52.455Z,99149.81
2022-09-11T03:11:20.125Z,99156.28
2022-09-11T03:13:50.037Z,99148.28
2022-09-11T03:16:18.104Z,99152.84
2022-09-11T03:18:45.639Z,99153.59
2022-09-11T03:21:17.359Z,99158.19
2022-09-11T03:23:45.140Z,99165.41
2022-09-11T03:26:13.918Z,99161.19
2022-09-11T03:28:41.405Z,99162.34
2022-09-11T03:31:09.850Z,99160.44
2022-09-11T03:33:38.085Z,99165.72
2022-09-11T03:36:06.173Z,99156.97
2022-09-11T03:38:33.772Z,99158.84
2022-09-11T03:41:03.434Z,99166.81
2022-09-11T03:43:33.426Z,99162.22
2022-09-11T03:46:03.284Z,99165.63
2022-09-11T03:48:32.492Z,99160.31
2022-09-11T03:51:00.093Z,99164.13
2022-09-11T03:53:28.472Z,99160.31
2022-09-11T03:55:59.070Z,99171.72
2022-09-11T03:58:27.066Z,99172.88
2022-09-11T04:00:54.659Z,99172.50
2022-09-11T04:03:22.103Z,99179.34
2022-09-11T04:06:02.655Z,99183.09
2022-09-11T04:08:35.739Z,99183.50
2022-09-11T04:11:07.903Z,99176.31
2022-09-11T04:13:40.094Z,99172.13
2022-09-11T04:16:14.746Z,99178.59
2022-09-11T04:18:46.043Z,99177.34
2022-09-11T04:21:18.144Z,99182.34
2022-09-11T04:23:54.413Z,99186.50
2022-09-11T04:26:25.535Z,99188.78
2022-09-11T04:28:59.906Z,99184.91
2022-09-11T04:31:28.425Z,99191.06
2022-09-11T04:33:58.227Z,99188.38
2022-09-11T04:36:30.213Z,99186.16
2022-09-11T04:39:00.501Z,99198.38
2022-09-11T04:41:29.067Z,99199.91
2022-09-11T04:44:05.531Z,99190.03
2022-09-11T04:46:38.290Z,99187.78
2022-09-11T04:49:10.847Z,99190.38
2022-09-11T04:51:40.658Z,99193.41
2022-09-11T04:54:16.348Z,99194.94
2022-09-11T04:56:44.032Z,99201.78
2022-09-11T04:59:17.970Z,99192.72
2022-09-11T05:02:21.993Z,99196.94
2022-09-11T05:04:53.329Z,99193.16
2022-09-11T05:07:21.044Z,99185.47
2022-09-11T05:09:54.454Z,99193.53
2022-09-11T05:12:22.886Z,99197.75
2022-09-11T05:14:51.651Z,99197.03
2022-09-11T05:17:20.572Z,99199.31
2022-09-11T05:19:49.266Z,99208.44
2022-09-11T05:22:16.725Z,99204.63
2022-09-11T05:24:49.681Z,99202.34
2022-09-11T05:27:17.654Z,99200.81
2022-09-11T05:29:45.817Z,99201.63
2022-09-11T05:32:15.376Z,99199.31
2022-09-11T05:34:43.658Z,99191.31
2022-09-11T05:37:15.168Z,99192.72
2022-09-11T05:39:46.649Z,99195.38
2022-09-11T05:42:16.571Z,99194.56
2022-09-11T05:44:49.106Z,99194.25
2022-09-11T05:47:17.021Z,99196.91
2022-09-11T05:49:47.981Z,99200.31
2022-09-11T05:52:18.589Z,99201.34
2022-09-11T05:54:46.306Z,99202.88
2022-09-11T05:57:15.087Z,99202.06
2022-09-11T05:59:43.521Z,99201.66
2022-09-11T06:02:12.663Z,99202.34
2022-09-11T06:04:44.818Z,99196.56
2022-09-11T06:07:13.304Z,99199.16
2022-09-11T06:09:46.133Z,99197.56
2022-09-11T06:12:16.544Z,99199.75
2022-09-11T06:14:45.318Z,99198.53
2022-09-11T06:17:13.995Z,99185.53
2022-09-11T06:19:41.981Z,99197.56
2022-09-11T06:22:10.351Z,99194.47
2022-09-11T06:24:44.244Z,99193.50
2022-09-11T06:27:12.268Z,99197.31
2022-09-11T06:29:45.187Z,99204.41
2022-09-11T06:32:16.238Z,99198.78
2022-09-11T06:34:43.793Z,99192.94
2022-09-11T06:37:15.009Z,99193.78
2022-09-11T06:39:42.576Z,99204.94
2022-09-11T06:42:19.327Z,99205.31
2022-09-11T06:44:50.592Z,99203.19
2022-09-11T06:47:18.806Z,99207.03
2022-09-11T06:49:47.159Z,99214.09
2022-09-11T06:52:20.717Z,99209.56
2022-09-11T06:55:05.203Z,99218.59
2022-09-11T06:57:32.931Z,99211.56
2022-09-11T07:00:00.421Z,99208.22
2022-09-11T07:02:33.191Z,99203.75
2022-09-11T07:05:02.544Z,99216.28
2022-09-11T07:07:31.610Z,99219.31
2022-09-11T07:10:03.640Z,99221.31
2022-09-11T07:12:34.905Z,99219.09
2022-09-11T07:15:07.372Z,99225.84
2022-09-11T07:17:37.709Z,99224.66
2022-09-11T07:20:10.015Z,99217.38
2022-09-11T07:22:39.132Z,99220.19
2022-09-11T07:25:08.606Z,99223.97
2022-09-11T07:27:39.853Z,99224.28
2022-09-11T07:30:09.404Z,99225.31
2022-09-11T07:32:57.474Z,99225.56
2022-09-11T07:35:25.162Z,99227.94
2022-09-11T07:37:54.280Z,99234.41
2022-09-11T07:40:26.038Z,99229.47
2022-09-11T07:42:54.566Z,99228.63
2022-09-11T07:45:23.031Z,99236.72
2022-09-11T07:47:53.063Z,99234.06
2022-09-11T07:50:24.340Z,99233.69
2022-09-11T07:52:52.799Z,99241.88
2022-09-11T07:55:21.387Z,99239.03
2022-09-11T07:57:49.732Z,99236.16
2022-09-11T08:00:19.181Z,99230.69
2022-09-11T08:02:51.912Z,99237.41
2022-09-11T08:05:29.423Z,99232.03
2022-09-11T08:07:58.887Z,99240.69
2022-09-11T08:10:28.344Z,99236.88
2022-09-11T08:12:59.758Z,99234.78
2022-09-11T08:15:32.253Z,99232.59
2022-09-11T08:18:01.336Z,99232.75
2022-09-11T08:20:30.674Z,99235.09
2022-09-11T08:23:01.906Z,99231.88
2022-09-11T08:25:32.011Z,99227.66
2022-09-11T08:28:00.592Z,99219.56
2022-09-11T08:30:31.440Z,99216.34
2022-09-11T08:33:00.097Z,99206.59
2022-09-11T08:35:28.371Z,99199.84
2022-09-11T08:37:56.930Z,99202.34
2022-09-11T08:40:27.662Z,99190.56
2022-09-11T08:43:03.832Z,99188.75
2022-09-11T08:45:36.289Z,99179.63
2022-09-11T08:48:09.322Z,99185.97
2022-09-11T08:50:43.346Z,99177.25
2022-09-11T08:53:19.573Z,99178.31
2022-09-11T08:56:03.873Z,99173.31
2022-09-11T08:58:51.044Z,99171.59
2022-09-11T09:01:38.996Z,99157.44
2022-09-11T09:04:30.787Z,99157.50
2022-09-11T09:07:39.872Z,99152.59
2022-09-11T09:10:37.334Z,99149.50
2022-09-11T09:13:42.791Z,99149.16
2022-09-11T09:16:51.863Z,99144.97
2022-09-11T09:19:34.521Z,99144.25
2022-09-11T09:22:44.610Z,99137.47
2022-09-11T09:25:22.731Z,99137.53
2022-09-11T09:28:00.514Z,99139.75
2022-09-11T09:30:38.848Z,99136.19
2022-09-11T09:33:30.771Z,99135.28
2022-09-11T09:36:14.804Z,99134.69
2022-09-11T09:38:44.197Z,99132.63
2022-09-11T09:41:38.844Z,99131.44
2022-09-11T09:44:42.981Z,99124.53
2022-09-11T09:47:15.264Z,99129.66
2022-09-11T09:49:43.951Z,99127.34
2022-09-11T09:52:26.604Z,99118.78
2022-09-11T09:55:02.525Z,99117.13
2022-09-11T09:57:36.552Z,99121.53
2022-09-11T10:00:12.582Z,99116.25
2022-09-11T10:02:49.236Z,99109.50
2022-09-11T10:05:44.466Z,99108.81
2022-09-11T10:08:31.452Z,99108.09
2022-09-11T10:11:05.316Z,99106.09
2022-09-11T10:13:36.727Z,99097.63
2022-09-11T10:16:19.656Z,99100.63
2022-09-11T10:18:47.269Z,99094.91
2022-09-11T10:21:35.400Z,99093.19
2022-09-11T10:24:10.462Z,99091.28
2022-09-11T10:26:49.174Z,99092.00
2022-09-11T10:29:29.910Z,99090.81
2022-09-11T10:32:04.436Z,99090.06
2022-09-11T10:34:41.125Z,99088.72
2022-09-11T10:37:25.759Z,99095.56
2022-09-11T10:40:07.394Z,99094.09
2022-09-11T10:42:57.070Z,99082.69
2022-09-11T10:45:26.311Z,99080.06
2022-09-11T10:47:55.538Z,99068.41
2022-09-11T10:50:28.839Z,99071.94
2022-09-11T10:52:56.958Z,99061.66
2022-09-11T10:55:52.366Z,99062.00
2022-09-11T10:58:31.433Z,99053.97
2022-09-11T11:01:00.112Z,99044.75
2022-09-11T11:03:29.320Z,99056.97
2022-09-11T11:06:23.804Z,99062.59
2022-09-11T11:09:21.737Z,99058.72
2022-09-11T11:12:23.386Z,99049.72
2022-09-11T11:15:25.924Z,99046.38
2022-09-11T11:18:21.171Z,99049.47
2022-09-11T11:21:20.483Z,99041.97
2022-09-11T11:24:06.655Z,99044.34
2022-09-11T11:26:42.380Z,99042.31
2022-09-11T11:29:34.550Z,99032.97
2022-09-11T11:32:33.291Z,99031.66
2022-09-11T11:35:23.302Z,99038.25
2022-09-11T11:38:05.075Z,99031.19
2022-09-11T11:40:42.080Z,99025.81
2022-09-11T11:43:17.591Z,99018.88
2022-09-11T11:45:51.929Z,99006.31
2022-09-11T11:48:58.869Z,99011.25
2022-09-11T11:51:56.432Z,99010.19
2022-09-11T11:54:37.859Z,99001.38
2022-09-11T11:57:16.872Z,98986.97
2022-09-11T12:00:13.851Z,98986.22
2022-09-11T12:03:30.357Z,98991.13
2022-09-11T12:05:58.484Z,98993.94
2022-09-11T12:08:27.623Z,98984.16
2022-09-11T12:11:07.528Z,98988.56
2022-09-11T12:13:42.677Z,98990.88
2022-09-11T12:16:16.143Z,98981.28
2022-09-11T12:19:21.482Z,98982.25
2022-09-11T12:22:14.515Z,98983.47
2022-09-11T12:25:01.533Z,98978.38
2022-09-11T12:27:40.397Z,98976.41
2022-09-11T12:30:28.640Z,98972.00
2022-09-11T12:32:59.063Z,98971.97
2022-09-11T12:35:47.773Z,98958.78
2022-09-11T12:38:38.083Z,98955.06
2022-09-11T12:41:17.105Z,98962.22
2022-09-11T12:43:50.323Z,98968.41
2022-09-11T12:46:24.465Z,98963.41
2022-09-11T12:49:17.866Z,98958.41
2022-09-11T12:51:43.551Z,98962.06
2022-09-11T12:54:19.051Z,98951.28
2022-09-11T12:56:52.769Z,98958.34
2022-09-11T12:59:53.831Z,98948.91
2022-09-11T13:02:44.692Z,98946.94
2022-09-11T13:05:30.155Z,98950.22
2022-09-11T13:08:06.399Z,98943.97
2022-09-11T13:10:38.155Z,98946.09
2022-09-11T13:13:40.497Z,98946.47
2022-09-11T13:16:29.719Z,98941.31
2022-09-11T13:19:20.689Z,98942.75
2022-09-11T13:21:52.200Z,98935.22
2022-09-11T13:24:33.315Z,98940.72
2022-09-11T13:27:13.281Z,98932.00
2022-09-11T13:29:43.627Z,98937.56
2022-09-11T13:32:16.520Z,98932.03
2022-09-11T13:34:48.059Z,98918.88
2022-09-11T13:37:40.350Z,98927.34
2022-09-11T13:40:27.116Z,98916.19
2022-09-11T13:42:54.948Z,98905.34
2022-09-11T13:45:24.638Z,98912.41
2022-09-11T13:47:54.620Z,98906.97
2022-09-11T13:50:23.525Z,98907.69
2022-09-11T13:53:12.420Z,98890.44
2022-09-11T13:55:40.013Z,98901.59
2022-09-11T13:58:35.080Z,98901.78
2022-09-11T14:01:14.333Z,98904.34
2022-09-11T14:03:49.246Z,98896.53
2022-09-11T14:06:21.567Z,98893.66
2022-09-11T14:08:57.460Z,98893.09
2022-09-11T14:11:29.722Z,98890.31
2022-09-11T14:14:10.464Z,98891.72
2022-09-11T14:16:46.554Z,98884.47
2022-09-11T14:19:30.079Z,98891.91
2022-09-11T14:21:58.542Z,98898.28
2022-09-11T14:24:35.103Z,98904.34
2022-09-11T14:27:25.308Z,98904.19
2022-09-11T14:29:55.631Z,98900.56
2022-09-11T14:32:37.353Z,98893.31
2022-09-11T14:35:09.249Z,98892.75
2022-09-11T14:37:45.870Z,98883.00
2022-09-11T14:40:18.843Z,98876.13
2022-09-11T14:42:47.223Z,98877.69
2022-09-11T14:45:26.066Z,98880.81
2022-09-11T14:47:54.475Z,98879.22
2022-09-11T14:50:22.669Z,98880.19
2022-09-11T14:52:50.229Z,98888.91
2022-09-11T14:55:19.975Z,98885.13
2022-09-11T14:57:49.974Z,98881.03
2022-09-11T15:00:20.193Z,98879.66
2022-09-11T15:02:48.011Z,98880.69
2022-09-11T15:05:19.860Z,98867.22
2022-09-11T15:07:48.931Z,98871.78
2022-09-11T15:10:17.308Z,98868.50
2022-09-11T15:12:44.934Z,98869.50
2022-09-11T15:15:15.844Z,98864.44
2022-09-11T15:17:44.087Z,98868.97
2022-09-11T15:20:11.972Z,98864.75
2022-09-11T15:22:39.788Z,98863.97
2022-09-11T15:25:08.377Z,98864.72
2022-09-11T15:27:36.522Z,98855.19
2022-09-11T15:30:25.728Z,98859.75
2022-09-11T15:32:53.351Z,98854.59
2022-09-11T15:35:21.401Z,98851.78
2022-09-11T15:37:48.881Z,98849.22
2022-09-11T15:40:18.075Z,98846.75
2022-09-11T15:42:47.888Z,98842.72
2022-09-11T15:45:15.715Z,98843.31
2022-09-11T15:47:44.569Z,98837.50
2022-09-11T15:50:14.433Z,98837.06
2022-09-11T15:52:43.966Z,98835.41
2022-09-11T15:55:12.429Z,98833.13
2022-09-11T15:57:41.654Z,98843.34
2022-09-11T16:00:10.212Z,98842.19
2022-09-11T16:02:45.862Z,98837.88
2022-09-11T16:05:39.576Z,98838.16
2022-09-11T16:08:08.092Z,98850.97
2022-09-11T16:10:41.081Z,98843.63
2022-09-11T16:13:11.898Z,98843.06
2022-09-11T16:15:41.103Z,98845.47
2022-09-11T16:18:10.396Z,98845.63
2022-09-11T16:27:32.025Z,98844.38
2022-09-11T16:30:26.288Z,98840.00
2022-09-11T16:32:49.034Z,98844.44
2022-09-11T16:35:19.083Z,98852.28
2022-09-11T16:37:48.509Z,98848.16
2022-09-11T16:40:16.061Z,98854.81
2022-09-11T16:42:43.521Z,98862.19
2022-09-11T16:45:11.103Z,98858.72
2022-09-11T16:47:40.533Z,98860.88
2022-09-11T16:50:09.807Z,98857.22
2022-09-11T16:52:39.109Z,98859.81
2022-09-11T16:55:09.835Z,98856.41
2022-09-11T16:57:38.014Z,98859.34
2022-09-11T17:00:08.238Z,98856.91
2022-09-11T17:02:37.540Z,98854.75
2022-09-11T17:05:09.727Z,98850.13
2022-09-11T17:07:37.540Z,98855.97
2022-09-11T17:10:05.406Z,98849.75
2022-09-11T17:12:32.962Z,98841.09
2022-09-11T17:15:00.595Z,98850.53
2022-09-11T17:17:28.090Z,98850.44
2022-09-11T17:19:58.027Z,98858.94
2022-09-11T17:22:25.862Z,98855.38
2022-09-11T17:24:54.458Z,98870.34
2022-09-11T17:27:22.192Z,98874.25
2022-09-11T17:29:52.375Z,98881.78
2022-09-11T17:32:30.298Z,98886.06
2022-09-11T17:34:59.920Z,98895.22
2022-09-11T17:37:30.413Z,98894.47
2022-09-11T17:39:58.730Z,98899.31
2022-09-11T17:42:30.364Z,98903.72
2022-09-11T17:44:58.276Z,98907.91
2022-09-11T17:47:33.529Z,98907.59
2022-09-11T17:50:02.989Z,98920.19
2022-09-11T17:52:32.597Z,98921.44
2022-09-11T17:55:01.727Z,98920.03
2022-09-11T17:57:31.369Z,98929.25
2022-09-11T17:59:59.768Z,98930.50
2022-09-11T18:02:28.466Z,98936.50
2022-09-11T18:04:56.635Z,98949.72
2022-09-11T18:07:24.881Z,98968.88
2022-09-11T18:09:56.670Z,98992.97
2022-09-11T18:12:27.133Z,99020.38
2022-09-11T18:14:56.113Z,99045.94
2022-09-11T18:17:23.624Z,99068.38
2022-09-11T18:19:51.107Z,99079.78
2022-09-11T18:22:22.848Z,99109.16
2022-09-11T18:24:53.292Z,99101.53
2022-09-11T18:27:23.462Z,99106.13
2022-09-11T18:29:51.008Z,99082.03
2022-09-11T18:32:21.942Z,99071.25
2022-09-11T18:34:51.929Z,99057.38
2022-09-11T18:37:23.812Z,99038.06
2022-09-11T18:39:56.888Z,99033.19
2022-09-11T18:42:32.546Z,99032.44
2022-09-11T18:45:09.761Z,99043.16
2022-09-11T18:47:40.705Z,99051.56
2022-09-11T18:50:12.409Z,99059.19
2022-09-11T18:52:50.948Z,99057.28
2022-09-11T18:55:45.057Z,99066.72
2022-09-11T18:58:15.130Z,99077.72
2022-09-11T19:00:44.406Z,99068.97
2022-09-11T19:03:17.157Z,99062.00
2022-09-11T19:05:54.350Z,99066.19
2022-09-11T19:08:22.849Z,99068.03
2022-09-11T19:10:51.466Z,99073.44
2022-09-11T19:13:32.990Z,99063.53
2022-09-11T19:16:06.594Z,99070.31
2022-09-11T19:18:41.184Z,99063.88
2022-09-11T19:21:17.309Z,99056.75
2022-09-11T19:23:47.794Z,99066.97
2022-09-11T19:26:25.535Z,99068.94
2022-09-11T19:29:03.472Z,99069.22
2022-09-11T19:31:32.664Z,99076.44
2022-09-11T19:34:28.102Z,99084.13
2022-09-11T19:36:56.223Z,99076.09
2022-09-11T19:39:25.875Z,99090.69
2022-09-11T19:41:56.584Z,99098.28
2022-09-11T19:44:32.516Z,99113.13
2022-09-11T19:47:07.671Z,99122.38
2022-09-11T19:49:39.149Z,99122.00
2022-09-11T19:52:10.528Z,99118.56
2022-09-11T19:54:40.124Z,99129.22
2022-09-11T19:57:15.842Z,99124.63
2022-09-11T19:59:51.322Z,99120.09
2022-09-11T20:02:19.765Z,99123.13
2022-09-11T20:04:47.786Z,99108.69
2022-09-11T20:07:17.264Z,99125.44
2022-09-11T20:09:46.411Z,99120.09
2022-09-11T20:12:13.940Z,99135.34
2022-09-11T20:14:45.899Z,99146.00
2022-09-11T20:17:14.205Z,99135.72
2022-09-11T20:19:44.777Z,99142.94
2022-09-11T20:22:13.891Z,99139.53
2022-09-11T20:24:41.914Z,99143.72
2022-09-11T20:27:09.438Z,99142.94
2022-09-11T20:29:40.020Z,99137.63
2022-09-11T20:32:07.834Z,99139.91
2022-09-11T20:34:38.367Z,99139.91
2022-09-11T20:37:10.049Z,99147.91
2022-09-11T20:39:42.706Z,99156.28
2022-09-11T20:42:10.313Z,99144.09
2022-09-11T20:44:38.565Z,99142.19
2022-09-11T20:47:06.762Z,99146.78
2022-09-11T20:49:34.284Z,99148.28
2022-09-11T20:52:02.251Z,99153.97
2022-09-11T20:54:29.702Z,99160.38
2022-09-11T20:56:57.266Z,99157.03
2022-09-11T20:59:24.741Z,99165.00
2022-09-11T21:01:52.312Z,99162.28
2022-09-11T21:04:19.995Z,99167.28
2022-09-11T21:06:47.682Z,99161.88
2022-09-11T21:09:15.132Z,99161.13
2022-09-11T21:11:42.957Z,99161.03
2022-09-11T21:14:16.227Z,99159.09
2022-09-11T21:16:43.806Z,99154.66
2022-09-11T21:19:11.704Z,99157.38
2022-09-11T21:21:40.285Z,99158.94
2022-09-11T21:24:13.913Z,99154.19
2022-09-11T21:26:42.869Z,99154.94
2022-09-11T21:29:13.757Z,99145.09
2022-09-11T21:31:41.450Z,99154.97
2022-09-11T21:34:09.923Z,99154.13
2022-09-11T21:36:37.980Z,99148.06
2022-09-11T21:39:05.690Z,99146.19
2022-09-11T21:41:33.954Z,99141.66
2022-09-11T21:44:01.705Z,99151.91
2022-09-11T21:46:30.257Z,99145.84
2022-09-11T21:48:57.940Z,99146.94
2022-09-11T21:51:25.974Z,99149.97
2022-09-11T21:54:00.031Z,99153.75
2022-09-11T21:56:33.104Z,99148.09
2022-09-11T21:59:01.590Z,99146.25
2022-09-11T22:01:31.802Z,99148.91
2022-09-11T22:04:01.358Z,99152.75
2022-09-11T22:06:31.362Z,99151.59
2022-09-11T22:08:59.429Z,99153.50
2022-09-11T22:11:27.439Z,99152.31
2022-09-11T22:13:55.678Z,99147.41
2022-09-11T22:16:24.404Z,99142.13
2022-09-11T22:18:56.026Z,99149.28
2022-09-11T22:21:24.058Z,99145.16
2022-09-11T22:23:51.774Z,99145.91
2022-09-11T22:26:24.071Z,99140.56
2022-09-11T22:28:52.520Z,99142.09
2022-09-11T22:31:24.018Z,99141.31
2022-09-11T22:33:52.863Z,99148.16
2022-09-11T22:36:27.679Z,99151.22
2022-09-11T22:38:56.462Z,99160.72
2022-09-11T22:41:24.893Z,99163.38
2022-09-11T22:43:53.538Z,99167.53
2022-09-11T22:46:22.434Z,99159.56
2022-09-11T22:48:51.094Z,99159.19
2022-09-11T22:51:19.860Z,99155.00
2022-09-11T22:53:47.625Z,99155.03
2022-09-11T22:56:15.794Z,99161.13
2022-09-11T22:58:43.631Z,99155.88
2022-09-11T23:01:21.111Z,99164.97
2022-09-11T23:03:54.356Z,99156.94
2022-09-11T23:06:40.629Z,99152.84
2022-09-11T23:09:13.175Z,99153.97
2022-09-11T23:11:41.114Z,99153.53
2022-09-11T23:14:13.974Z,99153.88
2022-09-11T23:16:43.103Z,99159.22
2022-09-11T23:19:14.178Z,99156.94
2022-09-11T23:21:42.535Z,99166.06
2022-09-11T23:24:14.449Z,99153.91
2022-09-11T23:26:42.013Z,99152.44
2022-09-11T23:29:09.977Z,99155.50
2022-09-11T23:31:37.652Z,99152.44
2022-09-11T23:34:08.998Z,99163.47
2022-09-11T23:36:37.012Z,99154.31
2022-09-11T23:39:04.677Z,99152.44
2022-09-11T23:41:32.347Z,99155.13
2022-09-11T23:43:59.893Z,99150.94
2022-09-11T23:46:27.474Z,99152.00
2022-09-11T23:48:54.921Z,99156.22
2022-09-11T23:51:22.601Z,99152.06
2022-09-11T23:53:51.770Z,99146.38
2022-09-11T23:56:20.944Z,99153.59
2022-09-11T23:58:49.147Z,99151.63
